• Join FlightAware (Why Join?)
  • Login
  • US Flag 
03:33AM EDT


 

Airport Tracker/Info


-or-


 

Live Flight TrackerFlight Track Log ✈ AWI3778 ✈ 27-Apr-2013 ✈ KJAX - KDCA

Flight Track Log - Related Links

Times and Time Zones

All times are in EDT time to prevent confusion due to time zone crossing. See the AWI3778 flight status page for this flight to view local times or setup timezone preferences in your user account.

Time Position Orientation Groundspeed Altitude Reporting Facility
EDT Latitude Longitude Course Direction KTS MPH feet Rate Location/Type
02:42PM 30.4736 -81.6753 19° North 148 170 700  Level Jacksonville Center
02:43PM 30.4919 -81.6317 64° Northeast 214 246 2,700 1,920 Climbing Jacksonville Center
02:44PM 30.4983 -81.6317 360° North 211 243 3,000 2,040 Climbing Jacksonville Center
02:44PM 30.5694 -81.6381 356° North 271 312 5,000 2,580 Climbing Jacksonville Center
02:45PM 30.6956 -81.4504 44° Northeast  Level FlightAware Approximate
02:45PM 30.6425 -81.6467 354° North 264 304 7,900  Level Jacksonville Center
02:46PM 30.7651 -81.3709 44° Northeast  Level FlightAware Approximate
02:46PM 30.7114 -81.6531 355° North 269 310 9,800  Level Jacksonville Center
02:47PM 30.8438 -81.3046 33° Northeast  Level FlightAware Approximate
02:48PM 30.9217 -81.2546 19° North  Level FlightAware Approximate
02:48PM 30.7992 -81.6614 355° North 290 334 12,200  Level Jacksonville Center
02:49PM 30.8850 -81.6653 358° North 297 342 14,000 1,800 Climbing Jacksonville Center
02:50PM 30.9725 -81.6667 359° North 307 353 15,900 1,800 Climbing Jacksonville Center
02:51PM 31.0667 -81.6703 358° North 319 367 17,600 1,020 Climbing Jacksonville Center
02:52PM 31.1628 -81.6786 356° North 332 382 18,000 900 Climbing Jacksonville Center
02:53PM 31.2647 -81.6603 North 352 405 19,400 1,200 Climbing Jacksonville Center
02:54PM 31.3644 -81.6006 27° Northeast 370 426 20,500 1,200 Climbing Jacksonville Center
02:55PM 31.4786 -81.5431 23° Northeast 392 451 21,900 1,200 Climbing Jacksonville Center
02:56PM 31.5700 -81.4953 24° Northeast 392 451 22,900 900 Climbing Jacksonville Center
02:57PM 31.6864 -81.4375 23° Northeast 397 457 23,700 720 Climbing Jacksonville Center
02:58PM 31.7922 -81.3819 24° Northeast 410 472 24,400 660 Climbing Jacksonville Center
02:59PM 31.8897 -81.3314 24° Northeast 417 480 25,100 600 Climbing Jacksonville Center
03:00PM 31.9933 -81.2636 29° Northeast 417 480 25,700 660 Climbing Jacksonville Center
03:01PM 32.0731 -81.1542 49° Northeast 417 480 26,500 660 Climbing Jacksonville Center
03:02PM 32.1633 -81.0347 48° Northeast 428 493 27,100 420 Climbing Jacksonville Center
03:03PM 32.2453 -80.9250 49° Northeast 443 510 27,400 840 Climbing Jacksonville Center
03:04PM 32.3189 -80.8275 48° Northeast 438 504 28,800 1,200 Climbing Jacksonville Center
03:05PM 32.3964 -80.7175 50° Northeast 432 497 29,800 900 Climbing Jacksonville Center
03:06PM 32.4739 -80.6147 48° Northeast 427 491 30,600 720 Climbing Jacksonville Center
03:07PM 32.5511 -80.5069 50° Northeast 427 491 31,300 660 Climbing Jacksonville Center
03:08PM 32.6306 -80.4011 48° Northeast 427 491 32,000 660 Climbing Jacksonville Center
03:09PM 32.7097 -80.2928 49° Northeast 432 497 32,700 480 Climbing Jacksonville Center
03:10PM 32.7867 -80.1844 50° Northeast 432 497 33,000 120 Climbing Jacksonville Center
03:11PM 32.8678 -80.0706 50° Northeast 437 503 33,000  Level Jacksonville Center
03:12PM 32.9828 -79.9853 32° Northeast 437 503 33,000  Level Jacksonville Center
03:13PM 33.0919 -79.9247 25° Northeast 432 497 33,000  Level Jacksonville Center
03:14PM 33.2011 -79.8667 24° Northeast 424 488 33,000  Level Jacksonville Center
03:15PM 33.3061 -79.8083 25° Northeast 419 482 33,000  Level Jacksonville Center
03:16PM 33.4111 -79.7500 25° Northeast 414 476 33,000  Level Jacksonville Center
03:17PM 33.5142 -79.6939 24° Northeast 414 476 33,000  Level Jacksonville Center
03:18PM 33.6169 -79.6353 25° Northeast 414 476 33,000  Level Jacksonville Center
03:19PM 33.7197 -79.5742 26° Northeast 414 476 33,000  Level Jacksonville Center
03:20PM 33.8228 -79.5203 23° Northeast 409 471 33,000  Level Jacksonville Center
03:21PM 33.9233 -79.4589 27° Northeast 409 471 33,000  Level Jacksonville Center
03:22PM 34.0097 -79.4128 24° Northeast 388 447 33,000  Level Jacksonville Center
03:23PM 34.1103 -79.3561 25° Northeast 381 438 33,000  Level Jacksonville Center
03:24PM 34.2719 -79.2636 25° Northeast 399 459 33,000  Level Washington Center
03:25PM 34.3739 -79.2050 25° Northeast 405 466 33,000  Level Washington Center
03:26PM 34.4736 -79.1467 26° Northeast 405 466 33,000  Level Washington Center
03:27PM 34.5736 -79.0878 26° Northeast 400 460 33,000 -480 Level Washington Center
03:28PM 34.6733 -79.0289 26° Northeast 395 455 32,100 -1,020 Descending Washington Center
03:29PM 34.7772 -78.9678 26° Northeast 395 455 31,000 -600 Descending Washington Center
03:30PM 34.8833 -78.9061 25° Northeast 406 467 31,000  Level Washington Center
03:31PM 34.9872 -78.8472 25° Northeast 406 467 31,000  Level Washington Center
03:32PM 35.0869 -78.7878 26° Northeast 406 467 31,000  Level Washington Center
03:33PM 35.1886 -78.7281 26° Northeast 406 467 31,000  Level Washington Center
03:34PM 35.2903 -78.6686 26° Northeast 400 460 31,000  Level Washington Center
03:35PM 35.4006 -78.6039 26° Northeast 401 461 31,000  Level Washington Center
03:36PM 35.5019 -78.5439 26° Northeast 396 456 31,000  Level Washington Center
03:37PM 35.6017 -78.4839 26° Northeast 396 456 31,000  Level Washington Center
03:38PM 35.7053 -78.4236 25° Northeast 396 456 31,000  Level Washington Center
03:39PM 35.8025 -78.3656 26° Northeast 390 449 31,000  Level Washington Center
03:40PM 35.9000 -78.3075 26° Northeast 390 449 31,000 -180 Level Washington Center
03:41PM 35.9994 -78.2492 25° Northeast 390 449 30,700 -900 Descending Washington Center
03:42PM 36.1050 -78.1861 26° Northeast 390 449 29,300 -1,440 Descending Washington Center
03:43PM 36.2150 -78.1175 27° Northeast 410 472 27,800 -1,200 Descending Washington Center
03:44PM 36.3292 -78.0489 26° Northeast 432 497 27,000 -420 Descending Washington Center
03:45PM 36.4306 -77.9850 27° Northeast 427 491 27,000  Level Washington Center
03:46PM 36.5361 -77.9211 26° Northeast 420 483 27,000  Level Washington Center
03:47PM 36.6439 -77.8544 26° Northeast 420 483 27,000  Level Washington Center
03:48PM 36.7536 -77.7875 26° Northeast 425 489 27,000  Level Washington Center
03:49PM 36.8650 -77.7389 19° North 425 489 27,000  Level Washington Center
03:50PM 36.9806 -77.6928 18° North 425 489 27,000 -780 Level Washington Center
03:51PM 37.0961 -77.6489 17° North 425 489 25,500 -1,560 Descending Washington Center
03:52PM 37.2117 -77.6025 18° North 425 489 24,000 -1,500 Descending Washington Center
03:53PM 37.3272 -77.5533 19° North 425 489 22,500 -1,020 Descending Washington Center
03:54PM 37.4383 -77.5092 18° North 425 489 22,000 -420 Descending Washington Center
03:55PM 37.5475 -77.4672 17° North 414 476 21,700 -1,080 Descending Washington Center
03:56PM 37.6525 -77.4228 19° North 403 464 19,900 -1,920 Descending Washington Center
03:57PM 37.7533 -77.3778 19° North 398 458 17,900 -1,800 Descending Washington Center
03:58PM 37.8561 -77.3381 17° North 392 451 16,300 -1,800 Descending Washington Center
03:59PM 37.9547 -77.2956 19° North 382 440 14,300 -2,100 Descending Washington Center
04:00PM 38.0489 -77.2636 15° North 369 425 12,200 -2,100 Descending Washington Center
04:01PM 38.1392 -77.2258 18° North 345 397 10,200 -1,140 Descending Washington Center
04:02PM 38.2147 -77.1933 19° North 314 361 10,000 -120 Descending Washington Center
04:03PM 38.2903 -77.1578 20° North 294 338 10,000 -480 Level Washington Center
04:04PM 38.3614 -77.1356 14° North 276 318 9,100 -1,200 Descending Washington Center
04:05PM 38.4325 -77.1131 14° North 270 311 7,600 -1,560 Descending Washington Center
04:06PM 38.5078 -77.0961 10° North 264 304 6,000 -1,440 Descending Washington Center
04:07PM 38.5706 -77.0786 12° North 251 289 4,800 -1,020 Descending Washington Center
04:08PM 38.6208 -77.0692 North 212 244 4,000 -900 Descending Washington Center
04:09PM 38.6500 -77.0500 27° Northeast 178 205 3,400 -960 Descending Potomac TRACON